• Join FlightAware (Why Join?)
  • Login
  • US Flag 
10:08AM EDT


 

Airport Tracker/Info


-or-


 

Live Flight TrackerFlight Track Log ✈ SKQ401 ✈ 05-May-2012 ✈ KBHM - KBUY

Flight Track Log - Related Links

Times and Time Zones

All times are in EDT time to prevent confusion due to time zone crossing. See the SKQ401 flight status page for this flight to view local times or setup timezone preferences in your user account.

Time Position Orientation Groundspeed Altitude Reporting Facility
EDT Latitude Longitude Course Direction KTS MPH feet Rate Location/Type
08:45AM 33.5506 -86.7881 359° North 133 153 1,200  Level Atlanta Center
08:46AM 33.5861 -86.7892 57° Northeast 136 157 2,000 660 Climbing Atlanta Center
08:47AM 33.6100 -86.7453 55° Northeast 156 180 2,600 660 Climbing Atlanta Center
08:48AM 33.6406 -86.6936 59° Northeast 151 174 3,600 720 Climbing Atlanta Center
08:49AM 33.6600 -86.6544 52° Northeast 143 165 4,300 600 Climbing Atlanta Center
08:50AM 33.6858 -86.6153 57° Northeast 143 165 4,900 540 Climbing Atlanta Center
08:51AM 33.7075 -86.5758 56° Northeast 146 168 5,500 540 Climbing Atlanta Center
08:52AM 33.7292 -86.5367 58° Northeast 149 171 6,100 480 Climbing Atlanta Center
08:53AM 33.7575 -86.4825 54° Northeast 150 173 6,600 480 Climbing Atlanta Center
08:54AM 33.7811 -86.4431 58° Northeast 171 197 7,200 600 Climbing Atlanta Center
08:55AM 33.8050 -86.3964 57° Northeast 171 197 7,900 600 Climbing Atlanta Center
08:56AM 33.8289 -86.3519 53° Northeast 164 189 8,500 540 Climbing Atlanta Center
08:57AM 33.8592 -86.3028 56° Northeast 164 189 9,000 240 Climbing Atlanta Center
08:58AM 33.8869 -86.2533 59° Northeast 170 196 9,000  Level Atlanta Center
08:59AM 33.9175 -86.1917 54° Northeast 177 204 9,000  Level Atlanta Center
09:00AM 33.9497 -86.1372 58° Northeast 188 216 9,000  Level Atlanta Center
09:01AM 33.9778 -86.0828 61° Northeast 188 216 9,000  Level Atlanta Center
09:02AM 34.0036 -86.0258 66° East 188 216 9,000  Level Atlanta Center
09:03AM 34.0256 -85.9661 61° Northeast 183 211 9,000  Level Atlanta Center
09:04AM 34.0514 -85.9092 61° Northeast 183 211 9,000  Level Atlanta Center
09:05AM 34.0731 -85.8619 62° Northeast 183 211 9,000  Level Atlanta Center
09:06AM 34.1011 -85.7975 68° East 183 211 9,000  Level Atlanta Center
09:07AM 34.1206 -85.7400 59° Northeast 188 216 9,000  Level Atlanta Center
09:08AM 34.1486 -85.6828 68° East 188 216 9,000  Level Atlanta Center
09:09AM 34.1681 -85.6256 62° Northeast 188 216 9,000  Level Atlanta Center
09:10AM 34.1939 -85.5658 61° Northeast 195 224 9,000  Level Atlanta Center
09:11AM 34.2217 -85.5058 66° East 195 224 9,000  Level Atlanta Center
09:12AM 34.2456 -85.4411 62° Northeast 195 224 9,000  Level Atlanta Center
09:13AM 34.2711 -85.3836 62° Northeast 195 224 9,000  Level Atlanta Center
09:14AM 34.2969 -85.3236 66° East 195 224 9,000  Level Atlanta Center
09:15AM 34.3183 -85.2661 64° Northeast 195 224 9,000  Level Atlanta Center
09:16AM 34.3417 -85.2086 62° Northeast 195 224 9,000  Level Atlanta Center
09:17AM 34.3675 -85.1486 64° Northeast 195 224 9,000  Level Atlanta Center
09:18AM 34.3908 -85.0911 65° Northeast 195 224 9,000  Level Atlanta Center
09:19AM 34.4144 -85.0308 62° Northeast 195 224 9,000  Level Atlanta Center
09:20AM 34.4378 -84.9783 65° Northeast 195 224 9,000  Level Atlanta Center
09:21AM 34.4611 -84.9181 65° Northeast 195 224 9,000  Level Atlanta Center
09:22AM 34.4844 -84.8578 63° Northeast 195 224 9,000  Level Atlanta Center
09:23AM 34.5100 -84.7975 65° Northeast 195 224 9,000  Level Atlanta Center
09:24AM 34.5333 -84.7372 64° Northeast 195 224 9,000  Level Atlanta Center
09:25AM 34.5586 -84.6744 64° Northeast 200 230 9,000  Level Atlanta Center
09:26AM 34.5861 -84.6064 65° Northeast 194 223 9,000  Level Atlanta Center
09:27AM 34.6092 -84.5461 63° Northeast 194 223 9,000  Level Atlanta Center
09:28AM 34.6344 -84.4856 66° East 194 223 9,000  Level Atlanta Center
09:29AM 34.6578 -84.4225 63° Northeast 199 229 9,000  Level Atlanta Center
09:30AM 34.6831 -84.3622 63° Northeast 194 223 9,000  Level Atlanta Center
09:31AM 34.7081 -84.3017 66° East 194 223 9,000  Level Atlanta Center
09:32AM 34.7311 -84.2383 61° Northeast 194 223 9,000  Level Atlanta Center
09:33AM 34.7583 -84.1778 65° Northeast 194 223 9,000  Level Atlanta Center
09:34AM 34.7814 -84.1172 64° Northeast 194 223 9,000  Level Atlanta Center
09:35AM 34.8064 -84.0539 66° East 194 223 9,000  Level Atlanta Center
09:36AM 34.8272 -83.9958 60° Northeast 194 223 9,000  Level Atlanta Center
09:37AM 34.8544 -83.9375 70° East 194 223 9,000  Level Atlanta Center
09:38AM 34.8731 -83.8767 63° Northeast 201 231 9,000  Level Atlanta Center
09:39AM 34.8981 -83.8158 63° Northeast 201 231 9,000  Level Atlanta Center
09:40AM 34.9250 -83.7500 63° Northeast 201 231 9,000  Level Atlanta Center
09:41AM 34.9500 -83.6892 66° East 195 224 9,000  Level Atlanta Center
09:42AM 34.9728 -83.6281 62° Northeast 195 224 9,000  Level Atlanta Center
09:43AM 35.0017 -83.5619 69° East 200 230 9,000  Level Atlanta Center
09:44AM 35.0203 -83.5011 67° East 207 238 9,000  Level Atlanta Center
09:45AM 35.0428 -83.4375 65° Northeast 207 238 9,000  Level Atlanta Center
09:46AM 35.0675 -83.3739 63° Northeast 207 238 9,000  Level Atlanta Center
09:47AM 35.0944 -83.3103 65° Northeast 202 232 9,000  Level Atlanta Center
09:48AM 35.1169 -83.2517 66° East 197 227 9,000  Level Atlanta Center
09:49AM 35.1394 -83.1906 66° East 191 220 9,000  Level Atlanta Center
09:50AM 35.1619 -83.1292 66° East 199 229 9,000  Level Atlanta Center
09:51AM 35.1844 -83.0681 61° Northeast 194 223 9,000  Level Atlanta Center
09:52AM 35.2131 -83.0042 75° East 194 223 9,000  Level Atlanta Center
09:53AM 35.2272 -82.9378 75° East 194 223 9,000  Level Atlanta Center
09:54AM 35.2392 -82.8817 72° East 200 230 9,000  Level Atlanta Center
09:55AM 35.2572 -82.8153 74° East 195 224 9,000  Level Atlanta Center
09:56AM 35.2733 -82.7464 73° East 201 231 9,000  Level Atlanta Center
09:57AM 35.2914 -82.6722 74° East 207 238 9,000  Level Atlanta Center
09:58AM 35.3053 -82.6111 68° East 207 238 9,000  Level Atlanta Center
09:59AM 35.3294 -82.5367 72° East 207 238 9,000  Level Atlanta Center
10:00AM 35.3472 -82.4678 70° East 226 260 9,000  Level Atlanta Center
10:01AM 35.3672 -82.4011 74° East 216 249 9,000  Level Atlanta Center
10:02AM 35.3811 -82.3397 71° East 210 242 9,000  Level Atlanta Center
10:03AM 35.4008 -82.2706 69° East 210 242 9,000  Level Atlanta Center
10:04AM 35.4208 -82.2064 68° East 205 236 9,000  Level Atlanta Center
10:05AM 35.4428 -82.1397 73° East 205 236 9,000  Level Atlanta Center
10:06AM 35.4606 -82.0703 72° East 205 236 9,000  Level Atlanta Center
10:07AM 35.4781 -82.0036 68° East 205 236 9,000  Level Atlanta Center
10:08AM 35.5019 -81.9317 72° East 205 236 9,000 -60 Level Atlanta Center
10:09AM 35.5197 -81.8647 69° East 205 236 8,900 -60 Descending Atlanta Center
10:10AM 35.5414 -81.7953 70° East 205 236 8,900  Level Atlanta Center
10:11AM 35.5608 -81.7283 69° East 207 238 8,900  Level Atlanta Center
10:12AM 35.5806 -81.6642 65° Northeast 207 238 8,900  Level Atlanta Center
10:13AM 35.6044 -81.6019 70° East 207 238 9,000  Climbing Atlanta Center
10:14AM 35.6239 -81.5350 66° East 207 238 8,900  Descending Atlanta Center
10:15AM 35.6475 -81.4703 67° East 207 238 9,000  Climbing Atlanta Center
10:16AM 35.6672 -81.4136 68° East 207 238 9,000  Level Atlanta Center
10:17AM 35.6889 -81.3489 69° East 202 232 9,000  Level Atlanta Center
10:18AM 35.7103 -81.2817 68° East 207 238 9,000  Level Atlanta Center
10:19AM 35.7336 -81.2094 72° East 207 238 9,000  Level Atlanta Center
10:20AM 35.7508 -81.1422 77° East 207 238 9,000  Level Atlanta Center
10:21AM 35.7639 -81.0728 79° East 207 238 9,000  Level Atlanta Center
10:22AM 35.7747 -81.0056 77° East 202 232 9,000  Level Atlanta Center
10:23AM 35.7875 -80.9361 77° East 202 232 9,000  Level Atlanta Center
10:24AM 35.8003 -80.8664 78° East 202 232 9,000  Level Atlanta Center
10:25AM 35.8131 -80.7942 75° East 202 232 9,000  Level Atlanta Center
10:26AM 35.8261 -80.7322 77° East 202 232 9,000  Level Atlanta Center
10:27AM 35.8389 -80.6653 78° East 202 232 9,000  Level Atlanta Center
10:28AM 35.8514 -80.5928 78° East 202 232 9,000  Level Atlanta Center
10:29AM 35.8639 -80.5231 79° East 202 232 9,000  Level Atlanta Center
10:30AM 35.8744 -80.4536 78° East 202 232 9,000  Level Atlanta Center
10:31AM 35.8869 -80.3811 75° East 202 232 9,000  Level Atlanta Center
10:32AM 35.9036 -80.3061 79° East 202 232 9,000  Level Atlanta Center
10:33AM 35.9158 -80.2311 78° East 212 244 9,000  Level Atlanta Center
10:34AM 35.9281 -80.1614 80° East 206 237 9,000  Level Atlanta Center
10:42AM 36.0010 -79.6625 75° East  Level FlightAware Approximate
10:43AM 36.0150 -79.5995 75° East  Level FlightAware Approximate
10:44AM 36.0289 -79.5366 85° East  Level FlightAware Approximate
10:45AM 36.0333 -79.4720 351° North  Level FlightAware Approximate
10:46AM 36.0855 -79.4819 171° South  Level Estimated
10:47AM 36.0333 -79.4720 351° North  Level Estimated
10:48AM 36.0855 -79.4819 167° South  Level Estimated
10:49AM 36.0333 -79.4667 336° Northwest  Level FlightAware Approximate
10:50AM 36.0817 -79.4928 156° South  Level Estimated
10:51AM 36.0333 -79.4667 336° Northwest  Level FlightAware Approximate
10:52AM 36.0817 -79.4928 156° South  Level Estimated
10:53AM 36.0333 -79.4667 156° South  Level FlightAware Approximate